Imagination — C6FN2 — position and weather

sailwx.info

Track history (hours):
 
Tides and Currents Weather Stations Pressure Air Temp Water Temp Dewpoint Dewpoint Depression Visibility Wind Speed Wind Dir Waves Ship Positions

Imagination

Operator: Carnival Cruise Lines

Last reported at 2018-Sep-24 21:30 UTC. Time now 2018-Sep-24 21:34 UTC.
Position N 33°21' W 118°19'.

Type: Ship. MMSI: 309933000.

Date/timePositionNaut miles runAvg speedWind from/ knotsBaromVisibWave heightAir tempDewpointWater temp
2018-Sep-24 21:30N 33°21' W 118°19'0 0.0
2018-Sep-24 21:03N 33°21' W 118°19'0 0.0
2018-Sep-24 21:00N 33°21' W 118°19'0 0.0
2018-Sep-24 20:30N 33°21' W 118°19'0 0.0
2018-Sep-24 20:03N 33°21' W 118°19'0 0.0
2018-Sep-24 20:00N 33°21' W 118°19'0 0.0
2018-Sep-24 19:30N 33°21' W 118°19'0 0.0
2018-Sep-24 19:04N 33°21' W 118°19'0 0.0
2018-Sep-24 19:00N 33°21' W 118°19'0 0.0
2018-Sep-24 18:30N 33°21' W 118°19'0 0.0
2018-Sep-24 18:03N 33°21' W 118°19'0 0.0
2018-Sep-24 18:00N 33°21' W 118°19'0 0.0
2018-Sep-24 17:30N 33°21' W 118°19'0 0.0
2018-Sep-24 17:03N 33°21' W 118°19'0 0.0
2018-Sep-24 17:00N 33°21' W 118°19'0 0.1
2018-Sep-24 16:30N 33°21' W 118°19'0 0.0
2018-Sep-24 16:02N 33°21' W 118°19'0 0.0
2018-Sep-24 16:01N 33°21' W 118°19'0 0.0
2018-Sep-24 15:30N 33°21' W 118°19'0 0.0
2018-Sep-24 15:03N 33°21' W 118°19'0 0.1
2018-Sep-24 15:00N 33°21' W 118°19'0 0.0
2018-Sep-24 14:30N 33°21' W 118°19'0 0.3
2018-Sep-24 14:00N 33°21' W 118°19'3 6.3
2018-Sep-24 13:30N 33°19' W 118°16'3 7.6
2018-Sep-24 13:03N 33°15' W 118°16'0 5.0
2018-Sep-24 13:00N 33°15' W 118°16'3 6.9
2018-Sep-24 12:30N 33°12' W 118°17'3 7.2
2018-Sep-24 12:03N 33°08' W 118°17'0 7.2
2018-Sep-24 12:00N 33°08' W 118°17'4 7.0
2018-Sep-24 11:30N 33°05' W 118°16'3 7.3
2018-Sep-24 11:03N 33°02' W 118°13'0 7.7
2018-Sep-24 11:00N 33°02' W 118°13'4 7.1
2018-Sep-24 10:30N 32°60' W 118°10'3 7.4
2018-Sep-24 10:02N 32°58' W 118°07'0 7.2
2018-Sep-24 10:01N 32°57' W 118°06'4 7.4
2018-Sep-24 09:30N 32°55' W 118°03'3 7.8
2018-Sep-24 09:03N 32°52' W 118°01'0 8.4
2018-Sep-24 09:00N 32°52' W 118°00'4 8.5
2018-Sep-24 08:30N 32°52' W 117°55'3 5.6
2018-Sep-24 08:03N 32°55' W 117°55'0 7.9
2018-Sep-24 08:00N 32°55' W 117°55'4 7.5
2018-Sep-24 07:30N 32°59' W 117°57'3 6.9
2018-Sep-24 07:03N 33°01' W 117°58'0 7.1
2018-Sep-24 07:00N 33°02' W 117°58'3 6.9
2018-Sep-24 06:30N 33°05' W 117°60'3 6.8
2018-Sep-24 06:03N 33°08' W 118°01'0 6.7
2018-Sep-24 06:00N 33°08' W 118°01'3 6.8
2018-Sep-24 05:30N 33°11' W 118°03'3 7.3
2018-Sep-24 05:03N 33°14' W 118°04'0 8.1
2018-Sep-24 05:00N 33°15' W 118°04'4 8.9
2018-Sep-24 04:30N 33°19' W 118°06'4 8.8
2018-Sep-24 04:03N 33°23' W 118°08'0 8.9
2018-Sep-24 04:00N 33°23' W 118°08'5 9.2
2018-Sep-24 03:29N 33°28' W 118°10'4 9.0
2018-Sep-24 03:03N 33°31' W 118°11'0 9.0
2018-Sep-24 03:00N 33°32' W 118°12'9565.3
2018-Sep-24 03:00N 33°24' W 118°06'1327.6 300 / 121009.210.8 19.017.521.0
2018-Sep-24 02:30N 33°36' W 118°13'4 8.6
2018-Sep-24 02:03N 33°40' W 118°12'0 8.4
2018-Sep-24 02:00N 33°40' W 118°12'4 8.2
2018-Sep-24 01:30N 33°44' W 118°11'1 1.9
2018-Sep-24 01:01N 33°45' W 118°11'0 0.0
2018-Sep-24 00:58N 33°45' W 118°11'0 0.0
2018-Sep-24 00:28N 33°45' W 118°11'0 0.0
2018-Sep-24 00:01N 33°45' W 118°11'0 0.0
2018-Sep-23 23:58N 33°45' W 118°11'0 0.0
2018-Sep-23 23:30N 33°45' W 118°11'0 0.0
2018-Sep-23 23:03N 33°45' W 118°11'0 0.0
2018-Sep-23 23:00N 33°45' W 118°11'0 0.0
2018-Sep-23 22:30N 33°45' W 118°11'0 0.0
2018-Sep-23 22:03N 33°45' W 118°11'0 0.0
2018-Sep-23 22:00N 33°45' W 118°11'0 0.0
2018-Sep-23 21:30N 33°45' W 118°11'0 0.0
2018-Sep-23 21:02N 33°45' W 118°11'0 0.0
2018-Sep-23 20:59N 33°45' W 118°11'0 0.0
2018-Sep-23 20:29N 33°45' W 118°11'0 0.0
2018-Sep-23 20:02N 33°45' W 118°11'0 0.0
2018-Sep-23 19:59N 33°45' W 118°11'0 0.0
2018-Sep-23 19:29N 33°45' W 118°11'0 0.0
2018-Sep-23 19:02N 33°45' W 118°11'0 0.0
2018-Sep-23 18:58N 33°45' W 118°11'0 0.0
2018-Sep-23 18:28N 33°45' W 118°11'0 0.0
2018-Sep-23 18:01N 33°45' W 118°11'0 0.0
2018-Sep-23 17:58N 33°45' W 118°11'0 0.0
2018-Sep-23 17:28N 33°45' W 118°11'0 0.0
2018-Sep-23 17:02N 33°45' W 118°11'0 0.0
2018-Sep-23 16:55N 33°45' W 118°11'0 0.0
2018-Sep-23 16:30N 33°45' W 118°11'0 0.0
2018-Sep-23 16:03N 33°45' W 118°11'0 0.0
2018-Sep-23 16:00N 33°45' W 118°11'0 0.0
2018-Sep-23 15:30N 33°45' W 118°11'0 0.0
2018-Sep-23 15:03N 33°45' W 118°11'0 0.0
2018-Sep-23 15:00N 33°45' W 118°11'0 0.0
2018-Sep-23 14:02N 33°45' W 118°11'0 0.0
2018-Sep-23 13:29N 33°45' W 118°11'0 0.0
2018-Sep-23 13:02N 33°45' W 118°11'0 0.0
2018-Sep-23 12:59N 33°45' W 118°11'0 0.6
2018-Sep-23 12:30N 33°45' W 118°11'2 5.4
2018-Sep-23 12:03N 33°42' W 118°11'010.3
2018-Sep-23 12:00N 33°42' W 118°11'4 8.6
2018-Sep-23 11:30N 33°38' W 118°10'4 8.7
2018-Sep-23 11:03N 33°34' W 118°09'0 9.5
2018-Sep-23 11:00N 33°33' W 118°09'5 9.2
2018-Sep-23 10:31N 33°29' W 118°06'512.0
2018-Sep-23 10:03N 33°24' W 118°04'112.2
2018-Sep-23 10:00N 33°24' W 118°04'611.9
2018-Sep-23 09:30N 33°18' W 118°02'511.9
2018-Sep-23 09:03N 33°13' W 117°59'012.0
2018-Sep-23 09:00N 33°12' W 117°59'611.7
2018-Sep-23 08:30N 33°07' W 117°57'612.4
2018-Sep-23 08:03N 33°02' W 117°54'116.8
2018-Sep-23 08:00N 33°01' W 117°54'917.2
2018-Sep-23 07:30N 32°53' W 117°49'817.0
2018-Sep-23 07:04N 32°46' W 117°48'117.0
2018-Sep-23 07:01N 32°45' W 117°48'816.9
2018-Sep-23 06:31N 32°37' W 117°46'816.8
2018-Sep-23 06:03N 32°30' W 117°42'116.4
2018-Sep-23 06:01N 32°29' W 117°42'815.9
2018-Sep-23 05:30N 32°22' W 117°37'715.5
2018-Sep-23 05:03N 32°16' W 117°32'115.4
2018-Sep-23 05:00N 32°16' W 117°32'4278.1
2018-Sep-23 05:00N 32°12' W 117°30'4 8.6 320 / 151011.210.8 19.015.921.0
2018-Sep-23 04:30N 32°10' W 117°26'715.4
2018-Sep-23 04:04N 32°05' W 117°20'114.9
2018-Sep-23 04:01N 32°05' W 117°19'815.4
2018-Sep-23 03:30N 32°02' W 117°11'715.7
2018-Sep-23 03:03N 31°59' W 117°03'115.0
2018-Sep-23 03:00N 31°58' W 117°02'1015.7
2018-Sep-23 02:23N 31°54' W 116°52'615.3
2018-Sep-23 02:00N 31°51' W 116°46'5 0.4
2018-Sep-22 13:45N 31°50' W 116°41'2 7.6
2018-Sep-22 13:29N 31°50' W 116°43'3 7.0
2018-Sep-22 13:03N 31°52' W 116°46'0 7.1
2018-Sep-22 13:00N 31°52' W 116°47'3 5.3
2018-Sep-22 12:30N 31°53' W 116°49'3 6.1
2018-Sep-22 12:03N 31°53' W 116°52'0 6.0
2018-Sep-22 12:00N 31°53' W 116°53'3 6.4
2018-Sep-22 11:31N 31°52' W 116°56'3 6.1
2018-Sep-22 11:02N 31°51' W 116°60'0 6.8
2018-Sep-22 11:00N 31°51' W 116°60'3 6.3
2018-Sep-22 10:30N 31°50' W 117°03'3 6.6
2018-Sep-22 10:03N 31°49' W 117°07'1 6.7
2018-Sep-22 09:57N 31°49' W 117°07'3 6.9
2018-Sep-22 09:30N 31°48' W 117°11'3 6.9
2018-Sep-22 09:03N 31°47' W 117°14'0 7.6
2018-Sep-22 09:00N 31°47' W 117°15'3 6.8
2018-Sep-22 08:31N 31°46' W 117°19'3 6.8
2018-Sep-22 08:03N 31°45' W 117°22'0 7.3
2018-Sep-22 08:00N 31°45' W 117°23'3 6.7
2018-Sep-22 07:31N 31°44' W 117°26'3 6.7
2018-Sep-22 07:04N 31°43' W 117°30'0 6.5
2018-Sep-22 07:01N 31°43' W 117°30'3 6.7
2018-Sep-22 06:30N 31°43' W 117°34'3 6.7
2018-Sep-22 06:03N 31°42' W 117°37'0 7.0
2018-Sep-22 06:00N 31°42' W 117°38'3 6.8
2018-Sep-22 05:30N 31°41' W 117°42'3 6.7
2018-Sep-22 05:03N 31°40' W 117°45'0 5.5
2018-Sep-22 05:00N 31°40' W 117°45'3 6.7
2018-Sep-22 04:30N 31°38' W 117°49'3 6.6
2018-Sep-22 04:03N 31°36' W 117°51'0 6.7
2018-Sep-22 04:00N 31°36' W 117°52'3 6.6
2018-Sep-22 03:30N 31°34' W 117°55'3 6.6
2018-Sep-22 03:03N 31°32' W 117°57'0 5.9
2018-Sep-22 03:00N 31°32' W 117°58'4263.4
2018-Sep-22 03:00N 31°30' W 117°54'610.7 310 / 121014.210.8 19.017.522.0
2018-Sep-22 02:26N 31°29' W 118°01'3 6.8
2018-Sep-22 02:03N 31°28' W 118°03'0 6.7
2018-Sep-22 02:00N 31°27' W 118°03'3 6.8
2018-Sep-22 01:30N 31°25' W 118°06'3 6.9
2018-Sep-22 01:04N 31°23' W 118°09'0 7.5
2018-Sep-22 01:00N 31°23' W 118°09'3 6.0
2018-Sep-22 00:30N 31°23' W 118°12'3 6.8
2018-Sep-22 00:04N 31°26' W 118°13'0 7.0
2018-Sep-22 00:00N 31°27' W 118°13'4 7.3
2018-Sep-21 23:30N 31°30' W 118°13'3 7.7
2018-Sep-21 23:03N 31°34' W 118°13'0 7.4
2018-Sep-21 23:00N 31°34' W 118°13'4 7.9
2018-Sep-21 22:30N 31°38' W 118°13'4 7.9
2018-Sep-21 22:04N 31°42' W 118°14'0 7.8
2018-Sep-21 22:01N 31°42' W 118°14'3 6.6
2018-Sep-21 21:30N 31°45' W 118°12'3 7.0
2018-Sep-21 21:03N 31°45' W 118°08'0 6.9
2018-Sep-21 21:00N 31°44' W 118°08'3207.5
2018-Sep-21 21:00N 31°42' W 118°06'2 3.6 300 / 6 27.0 20.015.321.0
2018-Sep-21 20:30N 31°43' W 118°04'3 7.1
2018-Sep-21 20:04N 31°42' W 118°01'0 7.3
2018-Sep-21 20:00N 31°41' W 118°00'3 6.7
2018-Sep-21 19:31N 31°41' W 117°57'3 7.2
2018-Sep-21 19:04N 31°42' W 117°53'0 7.0
2018-Sep-21 19:01N 31°43' W 117°53'4 7.2
2018-Sep-21 18:30N 31°44' W 117°49'3 7.0
2018-Sep-21 18:03N 31°46' W 117°46'0 7.7
2018-Sep-21 18:00N 31°46' W 117°45'5800.5
2018-Sep-21 18:00N 31°42' W 117°42'612.3 280 / 51016.210.8 18.014.821.0
2018-Sep-21 17:31N 31°48' W 117°43'3 6.7
2018-Sep-21 17:03N 31°51' W 117°43'0 6.4
2018-Sep-21 17:00N 31°51' W 117°43'3 6.8
2018-Sep-21 16:30N 31°55' W 117°43'3 6.9
2018-Sep-21 16:04N 31°58' W 117°43'0 6.9
2018-Sep-21 16:00N 31°58' W 117°44'3 6.8
2018-Sep-21 15:30N 32°01' W 117°44'3 6.9
2018-Sep-21 15:03N 32°05' W 117°45'0 6.9
2018-Sep-21 15:00N 32°05' W 117°45'3 6.9
2018-Sep-21 14:30N 32°08' W 117°45'2651.4
2018-Sep-21 14:00N 31°42' W 117°42'3368.4 010 / 51013.2 17.013.722.0
2018-Sep-21 13:30N 32°15' W 117°45'3 6.7
2018-Sep-21 13:03N 32°18' W 117°45'0 6.6
2018-Sep-21 13:01N 32°18' W 117°45'3 6.8
2018-Sep-21 12:31N 32°22' W 117°45'3 7.0
2018-Sep-21 12:04N 32°25' W 117°45'0 9.3
2018-Sep-21 12:01N 32°25' W 117°45'4 8.8
2018-Sep-21 11:31N 32°29' W 117°48'3 7.3
2018-Sep-21 11:03N 32°33' W 117°48'0 7.3
2018-Sep-21 11:01N 32°33' W 117°48'4 7.3
2018-Sep-21 10:30N 32°37' W 117°49'3 7.2
2018-Sep-21 10:04N 32°40' W 117°50'0 7.0
2018-Sep-21 10:00N 32°40' W 117°50'4 7.3
2018-Sep-21 09:30N 32°44' W 117°51'3 7.5
2018-Sep-21 09:03N 32°47' W 117°52'0 8.0
2018-Sep-21 09:01N 32°47' W 117°53'4 7.9
2018-Sep-21 08:30N 32°51' W 117°54'4 8.2
2018-Sep-21 08:04N 32°54' W 117°55'0 8.3
2018-Sep-21 08:01N 32°55' W 117°56'4 8.2
2018-Sep-21 07:30N 32°58' W 117°58'3 7.6
2018-Sep-21 07:04N 33°02' W 117°59'0 7.2
2018-Sep-21 07:01N 33°02' W 117°59'4 6.9
2018-Sep-21 06:30N 33°05' W 118°01'3 7.0
2018-Sep-21 06:04N 33°08' W 118°02'0 7.2
2018-Sep-21 06:01N 33°09' W 118°02'4 7.1
2018-Sep-21 05:30N 33°12' W 118°03'4 7.9
2018-Sep-21 05:03N 33°15' W 118°05'0 9.1
2018-Sep-21 05:01N 33°16' W 118°05'2142.2
2018-Sep-21 05:00N 33°18' W 118°06'2 4.4 190 / 121012.010.8 19.015.921.0
2018-Sep-21 04:30N 33°20' W 118°06'4 9.0
2018-Sep-21 04:03N 33°24' W 118°08'0 8.7
2018-Sep-21 04:00N 33°24' W 118°08'4 8.7
2018-Sep-21 03:31N 33°28' W 118°10'4 8.8
2018-Sep-21 03:04N 33°32' W 118°13'0 8.8
2018-Sep-21 03:01N 33°32' W 118°13'4 8.7
2018-Sep-21 02:30N 33°37' W 118°13'4 8.5
2018-Sep-21 02:03N 33°40' W 118°12'0 8.0
2018-Sep-21 02:01N 33°41' W 118°12'4 7.8
2018-Sep-21 01:30N 33°44' W 118°11'1 1.4
2018-Sep-21 01:02N 33°45' W 118°11'0 0.0
2018-Sep-21 00:59N 33°45' W 118°11'0 0.0
2018-Sep-21 00:28N 33°45' W 118°11'0 0.0
2018-Sep-21 00:01N 33°45' W 118°11'0 0.0
2018-Sep-20 23:58N 33°45' W 118°11'0 0.0
2018-Sep-20 23:28N 33°45' W 118°11'0 0.0
2018-Sep-20 23:01N 33°45' W 118°11'0 0.0
2018-Sep-20 22:58N 33°45' W 118°11'0 0.0
2018-Sep-20 22:31N 33°45' W 118°11'0 0.0
2018-Sep-20 22:03N 33°45' W 118°11'0 0.0
2018-Sep-20 21:57N 33°45' W 118°11'0 0.0
2018-Sep-20 21:30N 33°45' W 118°11'0 0.0
2018-Sep-20 21:03N 33°45' W 118°11'0 0.0
2018-Sep-20 21:00N 33°45' W 118°11'0 0.0
2018-Sep-20 20:30N 33°45' W 118°11'0 0.0
2018-Sep-20 20:02N 33°45' W 118°11'0 0.0
2018-Sep-20 19:59N 33°45' W 118°11'0 0.0
2018-Sep-20 19:29N 33°45' W 118°11'0 0.0
2018-Sep-20 18:59N 33°45' W 118°11'0 0.0
2018-Sep-20 18:29N 33°45' W 118°11'0 0.0
2018-Sep-20 18:02N 33°45' W 118°11'0 0.0
2018-Sep-20 17:59N 33°45' W 118°11'0 0.0
2018-Sep-20 17:28N 33°45' W 118°11'0 0.0
2018-Sep-20 17:01N 33°45' W 118°11'0 0.0
2018-Sep-20 16:58N 33°45' W 118°11'0 0.0
2018-Sep-20 16:28N 33°45' W 118°11'0 0.0
2018-Sep-20 16:01N 33°45' W 118°11'0 0.0
2018-Sep-20 15:58N 33°45' W 118°11'0 0.0
2018-Sep-20 15:31N 33°45' W 118°11'0 0.0
2018-Sep-20 15:03N 33°45' W 118°11'0 0.0
2018-Sep-20 14:57N 33°45' W 118°11'0 0.0
2018-Sep-20 14:03N 33°45' W 118°11'0 0.0
2018-Sep-20 14:00N 33°45' W 118°11'0 0.0
2018-Sep-20 13:30N 33°45' W 118°11'0 0.0
2018-Sep-20 13:03N 33°45' W 118°11'0 0.0
2018-Sep-20 13:00N 33°45' W 118°11'0 0.8
2018-Sep-20 12:30N 33°45' W 118°11'2 4.0
2018-Sep-20 12:03N 33°43' W 118°11'111.0
2018-Sep-20 12:00N 33°42' W 118°11'5 9.2
2018-Sep-20 11:30N 33°38' W 118°10'3 7.0
2018-Sep-20 11:03N 33°35' W 118°09'0 6.9
2018-Sep-20 11:00N 33°34' W 118°09'4 7.1
2018-Sep-20 10:30N 33°31' W 118°08'3 7.0
2018-Sep-20 10:03N 33°28' W 118°07'0 7.5
2018-Sep-20 10:00N 33°28' W 118°06'4 7.9
2018-Sep-20 09:30N 33°24' W 118°05'4 7.7
2018-Sep-20 09:03N 33°21' W 118°03'0 7.5
2018-Sep-20 09:00N 33°20' W 118°03'4 7.3
2018-Sep-20 08:30N 33°17' W 118°02'3 7.1
2018-Sep-20 08:03N 33°14' W 118°00'0 6.9
2018-Sep-20 08:00N 33°14' W 118°00'4 7.0
2018-Sep-20 07:30N 33°10' W 117°58'3 7.0
2018-Sep-20 07:03N 33°08' W 117°57'0 7.0
2018-Sep-20 07:00N 33°07' W 117°57'4 7.1
2018-Sep-20 06:30N 33°04' W 117°55'3 7.6
2018-Sep-20 06:03N 33°01' W 117°52'0 7.8
2018-Sep-20 06:00N 33°01' W 117°52'4 8.1
2018-Sep-20 05:30N 32°58' W 117°49'4 8.6
2018-Sep-20 05:03N 32°54' W 117°48'0 8.7
2018-Sep-20 05:00N 32°54' W 117°48'025.8
2018-Sep-20 05:00N 32°54' W 117°48'510.0 310 / 71008.010.8 19.015.922.0
2018-Sep-20 04:30N 32°49' W 117°48'510.7
2018-Sep-20 04:03N 32°44' W 117°48'110.9
2018-Sep-20 04:00N 32°44' W 117°48'510.7
2018-Sep-20 03:30N 32°38' W 117°47'510.3
2018-Sep-20 03:03N 32°34' W 117°46'110.2
2018-Sep-20 03:00N 32°33' W 117°46'5 9.8
2018-Sep-20 02:30N 32°29' W 117°45'4 9.4
2018-Sep-20 02:03N 32°24' W 117°44'0 7.4
2018-Sep-20 02:00N 32°24' W 117°44'4 8.6
2018-Sep-20 01:30N 32°20' W 117°44'4 9.6
2018-Sep-20 01:03N 32°15' W 117°43'1 9.7
2018-Sep-20 01:00N 32°15' W 117°43'5 9.7
2018-Sep-20 00:30N 32°10' W 117°42'4 9.6
2018-Sep-20 00:03N 32°06' W 117°41'0 9.4
2018-Sep-20 00:00N 32°05' W 117°41'5 9.4
2018-Sep-19 23:30N 32°01' W 117°40'4 9.5
2018-Sep-19 23:03N 31°57' W 117°39'0 9.2
2018-Sep-19 23:00N 31°56' W 117°39'5 9.2
2018-Sep-19 22:30N 31°52' W 117°37'510.6
2018-Sep-19 22:03N 31°48' W 117°35'111.2
2018-Sep-19 22:00N 31°47' W 117°34'610.2
2018-Sep-19 21:26N 31°42' W 117°30'3 9.0
2018-Sep-19 21:03N 31°39' W 117°29'0 8.0
2018-Sep-19 21:00N 31°39' W 117°29'4 7.3
2018-Sep-19 20:30N 31°35' W 117°30'3 7.4
2018-Sep-19 20:03N 31°33' W 117°33'0 7.3
2018-Sep-19 20:00N 31°33' W 117°33'4263.4
2018-Sep-19 20:00N 31°30' W 117°36'4 7.4 320 / 121010.010.8 20.013.522.0
2018-Sep-19 19:30N 31°33' W 117°38'3 7.2
2018-Sep-19 19:03N 31°34' W 117°41'0 7.6
2018-Sep-19 19:00N 31°34' W 117°42'4 7.6
2018-Sep-19 18:30N 31°35' W 117°46'3 7.5
2018-Sep-19 18:03N 31°36' W 117°50'0 7.6
2018-Sep-19 18:00N 31°36' W 117°50'4 7.3
2018-Sep-19 17:30N 31°37' W 117°54'3 6.6
2018-Sep-19 17:03N 31°39' W 117°57'0 7.3
2018-Sep-19 17:00N 31°39' W 117°58'4 7.3
2018-Sep-19 16:30N 31°42' W 117°60'3 7.1
2018-Sep-19 16:03N 31°45' W 118°02'0 7.3
2018-Sep-19 16:00N 31°45' W 118°02'4234.8
2018-Sep-19 16:00N 31°42' W 118°00'714.6 320 / 151010.010.8 17.013.722.0
2018-Sep-19 15:30N 31°48' W 118°05'3 7.2
2018-Sep-19 15:03N 31°50' W 118°07'0 7.1
2018-Sep-19 15:00N 31°51' W 118°07'5 5.5
2018-Sep-19 14:03N 31°48' W 118°13'4 7.5
2018-Sep-19 13:30N 31°44' W 118°13'3 7.4
2018-Sep-19 13:03N 31°41' W 118°13'0 7.4
2018-Sep-19 13:00N 31°40' W 118°12'2191.2
2018-Sep-19 13:00N 31°42' W 118°12'510.9 310 / 181010.0 5.4 17.012.022.0
2018-Sep-19 12:30N 31°37' W 118°11'3 7.2
2018-Sep-19 12:03N 31°34' W 118°10'0 7.2
2018-Sep-19 12:00N 31°34' W 118°09'4 7.5
2018-Sep-19 11:30N 31°33' W 118°05'3 7.5
2018-Sep-19 11:03N 31°33' W 118°01'0 8.1
2018-Sep-19 11:00N 31°33' W 118°01'4 7.6
2018-Sep-19 10:30N 31°33' W 117°56'3 7.5
2018-Sep-19 10:03N 31°35' W 117°53'0 7.8
2018-Sep-19 10:00N 31°35' W 117°53'4 7.6
2018-Sep-19 09:30N 31°38' W 117°49'3 7.4
2018-Sep-19 09:03N 31°40' W 117°46'0 7.5
2018-Sep-19 09:00N 31°40' W 117°46'4 7.8
2018-Sep-19 08:30N 31°41' W 117°41'4 8.1
2018-Sep-19 08:03N 31°42' W 117°37'0 7.4
2018-Sep-19 08:00N 31°42' W 117°37'4 7.9
2018-Sep-19 07:30N 31°43' W 117°32'3 7.4
2018-Sep-19 07:03N 31°44' W 117°28'1 7.6
2018-Sep-19 06:59N 31°44' W 117°28'4 7.7
2018-Sep-19 06:30N 31°45' W 117°24'4 7.8
2018-Sep-19 06:02N 31°46' W 117°19'0 7.0
2018-Sep-19 06:00N 31°46' W 117°19'4 7.6
2018-Sep-19 05:30N 31°47' W 117°15'3 7.6
2018-Sep-19 05:03N 31°48' W 117°11'2 7.4
2018-Sep-19 04:51N 31°48' W 117°09'3 7.3
2018-Sep-19 04:30N 31°49' W 117°06'510.7
2018-Sep-19 04:00N 31°48' W 117°00'9 8.7 320 / 181010.010.8 19.017.522.0
2018-Sep-19 02:59N 31°52' W 116°51'4 8.3
2018-Sep-19 02:27N 31°52' W 116°46'3 8.4
2018-Sep-19 02:03N 31°50' W 116°43'2 8.3
2018-Sep-19 01:46N 31°50' W 116°40'1 0.1
2018-Sep-18 13:58N 31°50' W 116°39'6 7.8
2018-Sep-18 13:13N 31°51' W 116°45'2 8.4
2018-Sep-18 13:02N 31°52' W 116°47'1 8.1
2018-Sep-18 12:56N 31°53' W 116°48'3 7.8
2018-Sep-18 12:30N 31°54' W 116°51'4 9.3
2018-Sep-18 12:03N 31°55' W 116°56'0 8.8
2018-Sep-18 12:00N 31°55' W 116°57'5 9.3
2018-Sep-18 11:30N 31°57' W 117°02'4 9.2
2018-Sep-18 11:04N 31°58' W 117°06'0 9.6
2018-Sep-18 11:01N 31°58' W 117°07'5 9.3
2018-Sep-18 10:31N 31°59' W 117°12'4 9.7
2018-Sep-18 10:04N 32°01' W 117°17'110.5
2018-Sep-18 10:01N 32°01' W 117°18'5 9.5
2018-Sep-18 09:30N 32°02' W 117°23'4 8.9
2018-Sep-18 09:04N 32°04' W 117°27'0 8.7
2018-Sep-18 09:01N 32°04' W 117°28'4 8.9
2018-Sep-18 08:31N 32°08' W 117°30'4 9.1
2018-Sep-18 08:03N 32°12' W 117°33'0 9.3
2018-Sep-18 08:01N 32°12' W 117°33'5 9.2
2018-Sep-18 07:31N 32°16' W 117°36'4 9.0
2018-Sep-18 07:04N 32°19' W 117°39'0 9.3
2018-Sep-18 07:01N 32°19' W 117°39'5 9.1
2018-Sep-18 06:31N 32°23' W 117°42'612.6
2018-Sep-18 06:03N 32°29' W 117°44'112.7
2018-Sep-18 06:01N 32°29' W 117°45'612.8
2018-Sep-18 05:30N 32°35' W 117°47'4 9.9
2018-Sep-18 05:04N 32°40' W 117°48'0 9.3
2018-Sep-18 05:00N 32°40' W 117°48'5 9.6
2018-Sep-18 04:30N 32°45' W 117°49'4 9.5
2018-Sep-18 04:04N 32°49' W 117°50'0 9.5
2018-Sep-18 04:01N 32°49' W 117°50'5 9.2
2018-Sep-18 03:30N 32°54' W 117°51'4 8.9
2018-Sep-18 03:03N 32°57' W 117°54'1 9.3
2018-Sep-18 03:00N 32°58' W 117°54'5 9.1
2018-Sep-18 02:30N 33°01' W 117°57'4 9.5
2018-Sep-18 02:03N 33°04' W 118°01'0 9.6
2018-Sep-18 02:00N 33°05' W 118°01'5 9.7
2018-Sep-18 01:31N 33°08' W 118°05'4 9.5
2018-Sep-18 01:04N 33°12' W 118°08'0 9.2
2018-Sep-18 01:01N 33°12' W 118°08'5 9.1
2018-Sep-18 00:30N 33°14' W 118°13'4 8.8
2018-Sep-18 00:03N 33°17' W 118°16'0 8.7
2018-Sep-18 00:00N 33°18' W 118°16'4 7.6
2018-Sep-17 23:30N 33°21' W 118°19'0 0.4
2018-Sep-17 22:58N 33°21' W 118°19'0 0.0
2018-Sep-17 22:28N 33°21' W 118°19'0 0.1
2018-Sep-17 22:01N 33°21' W 118°19'0 0.0
2018-Sep-17 21:58N 33°21' W 118°19'0 0.1
2018-Sep-17 21:28N 33°21' W 118°19'0 0.0
2018-Sep-17 21:03N 33°21' W 118°19'0 0.1
2018-Sep-17 21:00N 33°21' W 118°19'0 0.0
2018-Sep-17 20:30N 33°21' W 118°19'0 0.0
2018-Sep-17 20:03N 33°21' W 118°19'0 0.0
2018-Sep-17 19:45N 33°21' W 118°19'0 0.0
2018-Sep-17 19:27N 33°21' W 118°19'0 0.0
2018-Sep-17 19:03N 33°21' W 118°19'0 0.0
2018-Sep-17 18:59N 33°21' W 118°19'0 0.0
2018-Sep-17 18:29N 33°21' W 118°19'0 0.0
2018-Sep-17 18:02N 33°21' W 118°19'0 0.1
2018-Sep-17 17:59N 33°21' W 118°19'0 0.1
2018-Sep-17 17:26N 33°21' W 118°19'0 0.1
2018-Sep-17 17:03N 33°21' W 118°19'0 0.0
2018-Sep-17 16:56N 33°21' W 118°19'0 0.0
2018-Sep-17 16:28N 33°21' W 118°19'0 0.0
2018-Sep-17 15:58N 33°21' W 118°19'0 0.0
2018-Sep-17 15:28N 33°21' W 118°19'0 0.0
2018-Sep-17 15:01N 33°21' W 118°19'0 0.1
2018-Sep-17 14:58N 33°21' W 118°19'0 0.0
2018-Sep-17 14:31N 33°21' W 118°19'0 0.2
2018-Sep-17 14:00N 33°21' W 118°19'3 5.3
2018-Sep-17 13:30N 33°19' W 118°17'3 7.2
2018-Sep-17 13:03N 33°16' W 118°17'0 5.7
2018-Sep-17 13:00N 33°15' W 118°17'3 7.0
2018-Sep-17 12:30N 33°12' W 118°16'3 7.0
2018-Sep-17 12:03N 33°09' W 118°16'0 7.1
2018-Sep-17 12:00N 33°08' W 118°16'3 6.9
2018-Sep-17 11:30N 33°05' W 118°16'3 7.2
2018-Sep-17 11:03N 33°03' W 118°13'0 7.0
2018-Sep-17 11:00N 33°02' W 118°13'3 7.0
2018-Sep-17 10:30N 33°00' W 118°10'3 7.0
2018-Sep-17 10:03N 32°58' W 118°07'0 7.1
2018-Sep-17 10:00N 32°58' W 118°07'4 7.1
2018-Sep-17 09:30N 32°55' W 118°04'3 7.2
2018-Sep-17 09:03N 32°53' W 118°01'0 8.0
2018-Sep-17 09:00N 32°53' W 118°00'4 7.0
2018-Sep-17 08:30N 32°53' W 117°56'3 6.2
2018-Sep-17 08:03N 32°55' W 117°55'0 7.2
2018-Sep-17 08:00N 32°56' W 117°55'3 6.9
2018-Sep-17 07:30N 32°59' W 117°57'3 7.2
2018-Sep-17 07:03N 33°02' W 117°58'0 7.3
2018-Sep-17 07:00N 33°02' W 117°58'4 7.1
2018-Sep-17 06:30N 33°06' W 117°60'3 7.0
2018-Sep-17 06:03N 33°08' W 118°01'0 6.7
2018-Sep-17 06:00N 33°09' W 118°01'4 7.3
2018-Sep-17 05:30N 33°12' W 118°03'4 8.2
2018-Sep-17 05:03N 33°16' W 118°05'0 9.3
2018-Sep-17 05:00N 33°16' W 118°05'5 9.6
2018-Sep-17 04:30N 33°21' W 118°07'4 9.4
2018-Sep-17 04:03N 33°25' W 118°09'0 9.6
2018-Sep-17 04:00N 33°25' W 118°09'5 9.5
2018-Sep-17 03:30N 33°29' W 118°11'4 9.1
2018-Sep-17 03:03N 33°33' W 118°12'0 9.3
2018-Sep-17 03:00N 33°34' W 118°13'11743.0
2018-Sep-17 03:00N 33°24' W 118°06'1530.7 300 / 131012.010.8 21.016.422.0
2018-Sep-17 02:30N 33°38' W 118°13'4 8.1
2018-Sep-17 02:03N 33°41' W 118°11'0 7.5
2018-Sep-17 02:00N 33°42' W 118°11'3 6.6
2018-Sep-17 01:30N 33°45' W 118°11'0 0.1
2018-Sep-17 01:01N 33°45' W 118°11'0 0.0
2018-Sep-17 00:58N 33°45' W 118°11'0 0.0
2018-Sep-17 00:28N 33°45' W 118°11'0 0.0
2018-Sep-17 00:01N 33°45' W 118°11'0 0.0
2018-Sep-16 23:58N 33°45' W 118°11'0 0.0
2018-Sep-16 23:28N 33°45' W 118°11'0 0.0
2018-Sep-16 23:04N 33°45' W 118°11'0 0.0
2018-Sep-16 23:00N 33°45' W 118°11'0 0.0
2018-Sep-16 22:30N 33°45' W 118°11'0 0.0
2018-Sep-16 22:03N 33°45' W 118°11'0 0.0
2018-Sep-16 22:00N 33°45' W 118°11'0 0.0
2018-Sep-16 21:30N 33°45' W 118°11'0 0.0
2018-Sep-16 21:03N 33°45' W 118°11'0 0.0
2018-Sep-16 21:00N 33°45' W 118°11'0 0.0
2018-Sep-16 20:29N 33°45' W 118°11'0 0.0
2018-Sep-16 20:02N 33°45' W 118°11'0 0.0
2018-Sep-16 19:59N 33°45' W 118°11'0 0.0
2018-Sep-16 19:29N 33°45' W 118°11'0 0.0
2018-Sep-16 19:02N 33°45' W 118°11'0 0.0
2018-Sep-16 18:59N 33°45' W 118°11'0 0.0
2018-Sep-16 18:28N 33°45' W 118°11'0 0.0
2018-Sep-16 18:01N 33°45' W 118°11'0 0.0
2018-Sep-16 17:58N 33°45' W 118°11'0 0.0
2018-Sep-16 17:28N 33°45' W 118°11'0 0.0
2018-Sep-16 17:01N 33°45' W 118°11'0 0.0
2018-Sep-16 16:58N 33°45' W 118°11'0 0.0
2018-Sep-16 16:28N 33°45' W 118°11'0 0.0
2018-Sep-16 16:03N 33°45' W 118°11'0 0.0
2018-Sep-16 16:00N 33°45' W 118°11'0 0.0
2018-Sep-16 15:30N 33°45' W 118°11'0 0.0
2018-Sep-16 15:03N 33°45' W 118°11'0 0.0
2018-Sep-16 15:00N 33°45' W 118°11'0 0.0
2018-Sep-16 14:30N 33°45' W 118°11'0 0.0
2018-Sep-16 13:29N 33°45' W 118°11'0 0.0
2018-Sep-16 13:03N 33°45' W 118°11'0 0.0
2018-Sep-16 13:00N 33°45' W 118°11'0 0.7
2018-Sep-16 12:31N 33°45' W 118°11'3 6.3
2018-Sep-16 12:03N 33°42' W 118°11'0 9.9
2018-Sep-16 12:01N 33°42' W 118°11'4 8.2
2018-Sep-16 11:30N 33°37' W 118°10'510.6
2018-Sep-16 11:04N 33°33' W 118°08'112.3
2018-Sep-16 11:01N 33°32' W 118°08'611.3
2018-Sep-16 10:30N 33°27' W 118°06'511.8
2018-Sep-16 10:04N 33°22' W 118°04'112.2
2018-Sep-16 10:00N 33°21' W 118°03'611.7
2018-Sep-16 09:31N 33°16' W 117°60'511.5
2018-Sep-16 09:03N 33°11' W 117°58'111.3
2018-Sep-16 09:01N 33°11' W 117°57'611.1
2018-Sep-16 08:31N 33°06' W 117°55'613.6
2018-Sep-16 08:03N 32°60' W 117°53'116.9
2018-Sep-16 08:00N 32°59' W 117°52'817.0
2018-Sep-16 07:30N 32°51' W 117°49'817.1
2018-Sep-16 07:03N 32°44' W 117°47'116.3
2018-Sep-16 07:00N 32°43' W 117°47'816.2
2018-Sep-16 06:30N 32°35' W 117°45'716.0
2018-Sep-16 06:03N 32°28' W 117°42'115.7
2018-Sep-16 06:01N 32°27' W 117°42'815.9
2018-Sep-16 05:30N 32°21' W 117°36'715.8
2018-Sep-16 05:03N 32°15' W 117°31'115.8
2018-Sep-16 05:00N 32°15' W 117°30'816.0
2018-Sep-16 04:30N 32°10' W 117°23'716.0
2018-Sep-16 04:03N 32°05' W 117°16'115.8
2018-Sep-16 04:00N 32°05' W 117°16'815.8
2018-Sep-16 03:30N 32°01' W 117°08'716.1
2018-Sep-16 03:03N 31°57' W 117°00'116.6
2018-Sep-16 03:00N 31°57' W 116°59'816.3
2018-Sep-16 02:30N 31°53' W 116°50'715.7
2018-Sep-16 02:03N 31°50' W 116°43'114.6
2018-Sep-16 02:00N 31°50' W 116°42'4 0.3
2018-Sep-15 14:05N 31°50' W 116°38'1 9.2
2018-Sep-15 14:00N 31°50' W 116°39'3 6.6
2018-Sep-15 13:30N 31°50' W 116°43'5 6.6
2018-Sep-15 12:43N 31°53' W 116°48'1 6.2
2018-Sep-15 12:30N 31°53' W 116°50'3 6.7
2018-Sep-15 12:03N 31°52' W 116°53'0 7.4
2018-Sep-15 12:00N 31°52' W 116°53'3 7.0
2018-Sep-15 11:30N 31°51' W 116°57'3 7.0
2018-Sep-15 11:03N 31°50' W 117°01'0 7.5
2018-Sep-15 11:00N 31°49' W 117°01'4 7.4
2018-Sep-15 10:30N 31°49' W 117°05'3 7.2
2018-Sep-15 10:03N 31°51' W 117°08'0 6.7
2018-Sep-15 10:00N 31°51' W 117°09'3 6.8
2018-Sep-15 09:30N 31°53' W 117°12'3 7.0
2018-Sep-15 09:03N 31°55' W 117°15'0 6.9
2018-Sep-15 09:00N 31°55' W 117°15'3242.1
2018-Sep-15 09:00N 31°54' W 117°12'613.4 310 / 141010.0 20.015.322.0
2018-Sep-15 08:30N 31°56' W 117°19'3 6.3
2018-Sep-15 08:03N 31°53' W 117°20'0 7.3
2018-Sep-15 08:00N 31°53' W 117°20'4 7.6
2018-Sep-15 07:30N 31°49' W 117°19'4 7.9
2018-Sep-15 07:03N 31°46' W 117°17'0 8.4
2018-Sep-15 07:00N 31°45' W 117°17'4 8.3
2018-Sep-15 06:30N 31°41' W 117°16'3 7.2
2018-Sep-15 06:03N 31°39' W 117°17'0 8.2
2018-Sep-15 06:00N 31°39' W 117°18'4 7.6
2018-Sep-15 05:30N 31°40' W 117°22'3 7.5
2018-Sep-15 05:03N 31°42' W 117°25'0 6.1
2018-Sep-15 05:00N 31°42' W 117°26'3 6.7
2018-Sep-15 04:30N 31°41' W 117°30'3 6.9
2018-Sep-15 04:03N 31°40' W 117°33'0 6.4
2018-Sep-15 04:00N 31°40' W 117°33'3 6.8
2018-Sep-15 03:30N 31°39' W 117°37'3 6.7
2018-Sep-15 03:03N 31°39' W 117°41'0 5.5
2018-Sep-15 03:01N 31°38' W 117°41'5282.3
2018-Sep-15 03:00N 31°36' W 117°36'815.7 310 / 151009.010.8 19.017.522.0
2018-Sep-15 02:30N 31°38' W 117°45'3 7.0
2018-Sep-15 02:02N 31°37' W 117°49'0 6.9
2018-Sep-15 02:00N 31°37' W 117°49'3 6.9
2018-Sep-15 01:30N 31°36' W 117°53'3 6.9
2018-Sep-15 01:03N 31°36' W 117°56'0 7.4
2018-Sep-15 01:00N 31°36' W 117°57'3 6.7
2018-Sep-15 00:31N 31°35' W 118°00'3 6.8
2018-Sep-15 00:03N 31°34' W 118°04'0 6.4
2018-Sep-15 00:00N 31°34' W 118°04'4 7.2
2018-Sep-14 23:31N 31°33' W 118°08'3 7.5
2018-Sep-14 23:03N 31°33' W 118°12'0 8.8
2018-Sep-14 23:00N 31°33' W 118°13'4 8.0
2018-Sep-14 22:29N 31°38' W 118°13'3 8.0
2018-Sep-14 22:03N 31°41' W 118°13'0 8.0
2018-Sep-14 22:00N 31°41' W 118°13'  
Track history (hours):
 
Tides and Currents Weather Stations Pressure Air Temp Water Temp Dewpoint Dewpoint Depression Visibility Wind Speed Wind Dir Waves Ship Positions

Imagination

Operator: Carnival Cruise Lines

Last reported at 2018-Sep-24 21:30 UTC. Time now 2018-Sep-24 21:34 UTC.
Position N 33°21' W 118°19'.

Type: Ship. MMSI: 309933000.

Date/timePositionNaut miles runAvg speedWind from/ knotsBaromVisibWave heightAir tempDewpointWater temp
2018-Sep-24 21:30N 33°21' W 118°19'0 0.0
2018-Sep-24 21:03N 33°21' W 118°19'0 0.0
2018-Sep-24 21:00N 33°21' W 118°19'0 0.0
2018-Sep-24 20:30N 33°21' W 118°19'0 0.0
2018-Sep-24 20:03N 33°21' W 118°19'0 0.0
2018-Sep-24 20:00N 33°21' W 118°19'0 0.0
2018-Sep-24 19:30N 33°21' W 118°19'0 0.0
2018-Sep-24 19:04N 33°21' W 118°19'0 0.0
2018-Sep-24 19:00N 33°21' W 118°19'0 0.0
2018-Sep-24 18:30N 33°21' W 118°19'0 0.0
2018-Sep-24 18:03N 33°21' W 118°19'0 0.0
2018-Sep-24 18:00N 33°21' W 118°19'0 0.0
2018-Sep-24 17:30N 33°21' W 118°19'0 0.0
2018-Sep-24 17:03N 33°21' W 118°19'0 0.0
2018-Sep-24 17:00N 33°21' W 118°19'0 0.1
2018-Sep-24 16:30N 33°21' W 118°19'0 0.0
2018-Sep-24 16:02N 33°21' W 118°19'0 0.0
2018-Sep-24 16:01N 33°21' W 118°19'0 0.0
2018-Sep-24 15:30N 33°21' W 118°19'0 0.0
2018-Sep-24 15:03N 33°21' W 118°19'0 0.1
2018-Sep-24 15:00N 33°21' W 118°19'0 0.0
2018-Sep-24 14:30N 33°21' W 118°19'0 0.3
2018-Sep-24 14:00N 33°21' W 118°19'3 6.3
2018-Sep-24 13:30N 33°19' W 118°16'3 7.6
2018-Sep-24 13:03N 33°15' W 118°16'0 5.0
2018-Sep-24 13:00N 33°15' W 118°16'3 6.9
2018-Sep-24 12:30N 33°12' W 118°17'3 7.2
2018-Sep-24 12:03N 33°08' W 118°17'0 7.2
2018-Sep-24 12:00N 33°08' W 118°17'4 7.0
2018-Sep-24 11:30N 33°05' W 118°16'3 7.3
2018-Sep-24 11:03N 33°02' W 118°13'0 7.7
2018-Sep-24 11:00N 33°02' W 118°13'4 7.1
2018-Sep-24 10:30N 32°60' W 118°10'3 7.4
2018-Sep-24 10:02N 32°58' W 118°07'0 7.2
2018-Sep-24 10:01N 32°57' W 118°06'4 7.4
2018-Sep-24 09:30N 32°55' W 118°03'3 7.8
2018-Sep-24 09:03N 32°52' W 118°01'0 8.4
2018-Sep-24 09:00N 32°52' W 118°00'4 8.5
2018-Sep-24 08:30N 32°52' W 117°55'3 5.6
2018-Sep-24 08:03N 32°55' W 117°55'0 7.9
2018-Sep-24 08:00N 32°55' W 117°55'4 7.5
2018-Sep-24 07:30N 32°59' W 117°57'3 6.9
2018-Sep-24 07:03N 33°01' W 117°58'0 7.1
2018-Sep-24 07:00N 33°02' W 117°58'3 6.9
2018-Sep-24 06:30N 33°05' W 117°60'3 6.8
2018-Sep-24 06:03N 33°08' W 118°01'0 6.7
2018-Sep-24 06:00N 33°08' W 118°01'3 6.8
2018-Sep-24 05:30N 33°11' W 118°03'3 7.3
2018-Sep-24 05:03N 33°14' W 118°04'0 8.1
2018-Sep-24 05:00N 33°15' W 118°04'4 8.9
2018-Sep-24 04:30N 33°19' W 118°06'4 8.8
2018-Sep-24 04:03N 33°23' W 118°08'0 8.9
2018-Sep-24 04:00N 33°23' W 118°08'5 9.2
2018-Sep-24 03:29N 33°28' W 118°10'4 9.0
2018-Sep-24 03:03N 33°31' W 118°11'0 9.0
2018-Sep-24 03:00N 33°32' W 118°12'9565.3
2018-Sep-24 03:00N 33°24' W 118°06'1327.6 300 / 121009.210.8 19.017.521.0
2018-Sep-24 02:30N 33°36' W 118°13'4 8.6
2018-Sep-24 02:03N 33°40' W 118°12'0 8.4
2018-Sep-24 02:00N 33°40' W 118°12'4 8.2
2018-Sep-24 01:30N 33°44' W 118°11'1 1.9
2018-Sep-24 01:01N 33°45' W 118°11'0 0.0
2018-Sep-24 00:58N 33°45' W 118°11'0 0.0
2018-Sep-24 00:28N 33°45' W 118°11'0 0.0
2018-Sep-24 00:01N 33°45' W 118°11'0 0.0
2018-Sep-23 23:58N 33°45' W 118°11'0 0.0
2018-Sep-23 23:30N 33°45' W 118°11'0 0.0
2018-Sep-23 23:03N 33°45' W 118°11'0 0.0
2018-Sep-23 23:00N 33°45' W 118°11'0 0.0
2018-Sep-23 22:30N 33°45' W 118°11'0 0.0
2018-Sep-23 22:03N 33°45' W 118°11'0 0.0
2018-Sep-23 22:00N 33°45' W 118°11'0 0.0
2018-Sep-23 21:30N 33°45' W 118°11'0 0.0
2018-Sep-23 21:02N 33°45' W 118°11'0 0.0
2018-Sep-23 20:59N 33°45' W 118°11'0 0.0
2018-Sep-23 20:29N 33°45' W 118°11'0 0.0
2018-Sep-23 20:02N 33°45' W 118°11'0 0.0
2018-Sep-23 19:59N 33°45' W 118°11'0 0.0
2018-Sep-23 19:29N 33°45' W 118°11'0 0.0
2018-Sep-23 19:02N 33°45' W 118°11'0 0.0
2018-Sep-23 18:58N 33°45' W 118°11'0 0.0
2018-Sep-23 18:28N 33°45' W 118°11'0 0.0
2018-Sep-23 18:01N 33°45' W 118°11'0 0.0
2018-Sep-23 17:58N 33°45' W 118°11'0 0.0
2018-Sep-23 17:28N 33°45' W 118°11'0 0.0
2018-Sep-23 17:02N 33°45' W 118°11'0 0.0
2018-Sep-23 16:55N 33°45' W 118°11'0 0.0
2018-Sep-23 16:30N 33°45' W 118°11'0 0.0
2018-Sep-23 16:03N 33°45' W 118°11'0 0.0
2018-Sep-23 16:00N 33°45' W 118°11'0 0.0
2018-Sep-23 15:30N 33°45' W 118°11'0 0.0
2018-Sep-23 15:03N 33°45' W 118°11'0 0.0
2018-Sep-23 15:00N 33°45' W 118°11'0 0.0
2018-Sep-23 14:02N 33°45' W 118°11'0 0.0
2018-Sep-23 13:29N 33°45' W 118°11'0 0.0
2018-Sep-23 13:02N 33°45' W 118°11'0 0.0
2018-Sep-23 12:59N 33°45' W 118°11'0 0.6
2018-Sep-23 12:30N 33°45' W 118°11'2 5.4
2018-Sep-23 12:03N 33°42' W 118°11'010.3
2018-Sep-23 12:00N 33°42' W 118°11'4 8.6
2018-Sep-23 11:30N 33°38' W 118°10'4 8.7
2018-Sep-23 11:03N 33°34' W 118°09'0 9.5
2018-Sep-23 11:00N 33°33' W 118°09'5 9.2
2018-Sep-23 10:31N 33°29' W 118°06'512.0
2018-Sep-23 10:03N 33°24' W 118°04'112.2
2018-Sep-23 10:00N 33°24' W 118°04'611.9
2018-Sep-23 09:30N 33°18' W 118°02'511.9
2018-Sep-23 09:03N 33°13' W 117°59'012.0
2018-Sep-23 09:00N 33°12' W 117°59'611.7
2018-Sep-23 08:30N 33°07' W 117°57'612.4
2018-Sep-23 08:03N 33°02' W 117°54'116.8
2018-Sep-23 08:00N 33°01' W 117°54'917.2
2018-Sep-23 07:30N 32°53' W 117°49'817.0
2018-Sep-23 07:04N 32°46' W 117°48'117.0
2018-Sep-23 07:01N 32°45' W 117°48'816.9
2018-Sep-23 06:31N 32°37' W 117°46'816.8
2018-Sep-23 06:03N 32°30' W 117°42'116.4
2018-Sep-23 06:01N 32°29' W 117°42'815.9
2018-Sep-23 05:30N 32°22' W 117°37'715.5
2018-Sep-23 05:03N 32°16' W 117°32'115.4
2018-Sep-23 05:00N 32°16' W 117°32'4278.1
2018-Sep-23 05:00N 32°12' W 117°30'4 8.6 320 / 151011.210.8 19.015.921.0
2018-Sep-23 04:30N 32°10' W 117°26'715.4
2018-Sep-23 04:04N 32°05' W 117°20'114.9
2018-Sep-23 04:01N 32°05' W 117°19'815.4
2018-Sep-23 03:30N 32°02' W 117°11'715.7
2018-Sep-23 03:03N 31°59' W 117°03'115.0
2018-Sep-23 03:00N 31°58' W 117°02'1015.7
2018-Sep-23 02:23N 31°54' W 116°52'615.3
2018-Sep-23 02:00N 31°51' W 116°46'5 0.4
2018-Sep-22 13:45N 31°50' W 116°41'2 7.6
2018-Sep-22 13:29N 31°50' W 116°43'3 7.0
2018-Sep-22 13:03N 31°52' W 116°46'0 7.1
2018-Sep-22 13:00N 31°52' W 116°47'3 5.3
2018-Sep-22 12:30N 31°53' W 116°49'3 6.1
2018-Sep-22 12:03N 31°53' W 116°52'0 6.0
2018-Sep-22 12:00N 31°53' W 116°53'3 6.4
2018-Sep-22 11:31N 31°52' W 116°56'3 6.1
2018-Sep-22 11:02N 31°51' W 116°60'0 6.8
2018-Sep-22 11:00N 31°51' W 116°60'3 6.3
2018-Sep-22 10:30N 31°50' W 117°03'3 6.6
2018-Sep-22 10:03N 31°49' W 117°07'1 6.7
2018-Sep-22 09:57N 31°49' W 117°07'3 6.9
2018-Sep-22 09:30N 31°48' W 117°11'3 6.9
2018-Sep-22 09:03N 31°47' W 117°14'0 7.6
2018-Sep-22 09:00N 31°47' W 117°15'3 6.8
2018-Sep-22 08:31N 31°46' W 117°19'3 6.8
2018-Sep-22 08:03N 31°45' W 117°22'0 7.3
2018-Sep-22 08:00N 31°45' W 117°23'3 6.7
2018-Sep-22 07:31N 31°44' W 117°26'3 6.7
2018-Sep-22 07:04N 31°43' W 117°30'0 6.5
2018-Sep-22 07:01N 31°43' W 117°30'3 6.7
2018-Sep-22 06:30N 31°43' W 117°34'3 6.7
2018-Sep-22 06:03N 31°42' W 117°37'0 7.0
2018-Sep-22 06:00N 31°42' W 117°38'3 6.8
2018-Sep-22 05:30N 31°41' W 117°42'3 6.7
2018-Sep-22 05:03N 31°40' W 117°45'0 5.5
2018-Sep-22 05:00N 31°40' W 117°45'3 6.7
2018-Sep-22 04:30N 31°38' W 117°49'3 6.6
2018-Sep-22 04:03N 31°36' W 117°51'0 6.7
2018-Sep-22 04:00N 31°36' W 117°52'3 6.6
2018-Sep-22 03:30N 31°34' W 117°55'3 6.6
2018-Sep-22 03:03N 31°32' W 117°57'0 5.9
2018-Sep-22 03:00N 31°32' W 117°58'4263.4
2018-Sep-22 03:00N 31°30' W 117°54'610.7 310 / 121014.210.8 19.017.522.0
2018-Sep-22 02:26N 31°29' W 118°01'3 6.8
2018-Sep-22 02:03N 31°28' W 118°03'0 6.7
2018-Sep-22 02:00N 31°27' W 118°03'3 6.8
2018-Sep-22 01:30N 31°25' W 118°06'3 6.9
2018-Sep-22 01:04N 31°23' W 118°09'0 7.5
2018-Sep-22 01:00N 31°23' W 118°09'3 6.0
2018-Sep-22 00:30N 31°23' W 118°12'3 6.8
2018-Sep-22 00:04N 31°26' W 118°13'0 7.0
2018-Sep-22 00:00N 31°27' W 118°13'4 7.3
2018-Sep-21 23:30N 31°30' W 118°13'3 7.7
2018-Sep-21 23:03N 31°34' W 118°13'0 7.4
2018-Sep-21 23:00N 31°34' W 118°13'4 7.9
2018-Sep-21 22:30N 31°38' W 118°13'4 7.9
2018-Sep-21 22:04N 31°42' W 118°14'0 7.8
2018-Sep-21 22:01N 31°42' W 118°14'3 6.6
2018-Sep-21 21:30N 31°45' W 118°12'3 7.0
2018-Sep-21 21:03N 31°45' W 118°08'0 6.9
2018-Sep-21 21:00N 31°44' W 118°08'3207.5
2018-Sep-21 21:00N 31°42' W 118°06'2 3.6 300 / 6 27.0 20.015.321.0
2018-Sep-21 20:30N 31°43' W 118°04'3 7.1
2018-Sep-21 20:04N 31°42' W 118°01'0 7.3
2018-Sep-21 20:00N 31°41' W 118°00'3 6.7
2018-Sep-21 19:31N 31°41' W 117°57'3 7.2
2018-Sep-21 19:04N 31°42' W 117°53'0 7.0
2018-Sep-21 19:01N 31°43' W 117°53'4 7.2
2018-Sep-21 18:30N 31°44' W 117°49'3 7.0
2018-Sep-21 18:03N 31°46' W 117°46'0 7.7
2018-Sep-21 18:00N 31°46' W 117°45'5800.5
2018-Sep-21 18:00N 31°42' W 117°42'612.3 280 / 51016.210.8 18.014.821.0
2018-Sep-21 17:31N 31°48' W 117°43'3 6.7
2018-Sep-21 17:03N 31°51' W 117°43'0 6.4
2018-Sep-21 17:00N 31°51' W 117°43'3 6.8
2018-Sep-21 16:30N 31°55' W 117°43'3 6.9
2018-Sep-21 16:04N 31°58' W 117°43'0 6.9
2018-Sep-21 16:00N 31°58' W 117°44'3 6.8
2018-Sep-21 15:30N 32°01' W 117°44'3 6.9
2018-Sep-21 15:03N 32°05' W 117°45'0 6.9
2018-Sep-21 15:00N 32°05' W 117°45'3 6.9
2018-Sep-21 14:30N 32°08' W 117°45'2651.4
2018-Sep-21 14:00N 31°42' W 117°42'3368.4 010 / 51013.2 17.013.722.0
2018-Sep-21 13:30N 32°15' W 117°45'3 6.7
2018-Sep-21 13:03N 32°18' W 117°45'0 6.6
2018-Sep-21 13:01N 32°18' W 117°45'3 6.8
2018-Sep-21 12:31N 32°22' W 117°45'3 7.0
2018-Sep-21 12:04N 32°25' W 117°45'0 9.3
2018-Sep-21 12:01N 32°25' W 117°45'4 8.8
2018-Sep-21 11:31N 32°29' W 117°48'3 7.3
2018-Sep-21 11:03N 32°33' W 117°48'0 7.3
2018-Sep-21 11:01N 32°33' W 117°48'4 7.3
2018-Sep-21 10:30N 32°37' W 117°49'3 7.2
2018-Sep-21 10:04N 32°40' W 117°50'0 7.0
2018-Sep-21 10:00N 32°40' W 117°50'4 7.3
2018-Sep-21 09:30N 32°44' W 117°51'3 7.5
2018-Sep-21 09:03N 32°47' W 117°52'0 8.0
2018-Sep-21 09:01N 32°47' W 117°53'4 7.9
2018-Sep-21 08:30N 32°51' W 117°54'4 8.2
2018-Sep-21 08:04N 32°54' W 117°55'0 8.3
2018-Sep-21 08:01N 32°55' W 117°56'4 8.2
2018-Sep-21 07:30N 32°58' W 117°58'3 7.6
2018-Sep-21 07:04N 33°02' W 117°59'0 7.2
2018-Sep-21 07:01N 33°02' W 117°59'4 6.9
2018-Sep-21 06:30N 33°05' W 118°01'3 7.0
2018-Sep-21 06:04N 33°08' W 118°02'0 7.2
2018-Sep-21 06:01N 33°09' W 118°02'4 7.1
2018-Sep-21 05:30N 33°12' W 118°03'4 7.9
2018-Sep-21 05:03N 33°15' W 118°05'0 9.1
2018-Sep-21 05:01N 33°16' W 118°05'2142.2
2018-Sep-21 05:00N 33°18' W 118°06'2 4.4 190 / 121012.010.8 19.015.921.0
2018-Sep-21 04:30N 33°20' W 118°06'4 9.0
2018-Sep-21 04:03N 33°24' W 118°08'0 8.7
2018-Sep-21 04:00N 33°24' W 118°08'4 8.7
2018-Sep-21 03:31N 33°28' W 118°10'4 8.8
2018-Sep-21 03:04N 33°32' W 118°13'0 8.8
2018-Sep-21 03:01N 33°32' W 118°13'4 8.7
2018-Sep-21 02:30N 33°37' W 118°13'4 8.5
2018-Sep-21 02:03N 33°40' W 118°12'0 8.0
2018-Sep-21 02:01N 33°41' W 118°12'4 7.8
2018-Sep-21 01:30N 33°44' W 118°11'1 1.4
2018-Sep-21 01:02N 33°45' W 118°11'0 0.0
2018-Sep-21 00:59N 33°45' W 118°11'0 0.0
2018-Sep-21 00:28N 33°45' W 118°11'0 0.0
2018-Sep-21 00:01N 33°45' W 118°11'0 0.0
2018-Sep-20 23:58N 33°45' W 118°11'0 0.0
2018-Sep-20 23:28N 33°45' W 118°11'0 0.0
2018-Sep-20 23:01N 33°45' W 118°11'0 0.0
2018-Sep-20 22:58N 33°45' W 118°11'0 0.0
2018-Sep-20 22:31N 33°45' W 118°11'0 0.0
2018-Sep-20 22:03N 33°45' W 118°11'0 0.0
2018-Sep-20 21:57N 33°45' W 118°11'0 0.0
2018-Sep-20 21:30N 33°45' W 118°11'0 0.0
2018-Sep-20 21:03N 33°45' W 118°11'0 0.0
2018-Sep-20 21:00N 33°45' W 118°11'0 0.0
2018-Sep-20 20:30N 33°45' W 118°11'0 0.0
2018-Sep-20 20:02N 33°45' W 118°11'0 0.0
2018-Sep-20 19:59N 33°45' W 118°11'0 0.0
2018-Sep-20 19:29N 33°45' W 118°11'0 0.0
2018-Sep-20 18:59N 33°45' W 118°11'0 0.0
2018-Sep-20 18:29N 33°45' W 118°11'0 0.0
2018-Sep-20 18:02N 33°45' W 118°11'0 0.0
2018-Sep-20 17:59N 33°45' W 118°11'0 0.0
2018-Sep-20 17:28N 33°45' W 118°11'0 0.0
2018-Sep-20 17:01N 33°45' W 118°11'0 0.0
2018-Sep-20 16:58N 33°45' W 118°11'0 0.0
2018-Sep-20 16:28N 33°45' W 118°11'0 0.0
2018-Sep-20 16:01N 33°45' W 118°11'0 0.0
2018-Sep-20 15:58N 33°45' W 118°11'0 0.0
2018-Sep-20 15:31N 33°45' W 118°11'0 0.0
2018-Sep-20 15:03N 33°45' W 118°11'0 0.0
2018-Sep-20 14:57N 33°45' W 118°11'0 0.0
2018-Sep-20 14:03N 33°45' W 118°11'0 0.0
2018-Sep-20 14:00N 33°45' W 118°11'0 0.0
2018-Sep-20 13:30N 33°45' W 118°11'0 0.0
2018-Sep-20 13:03N 33°45' W 118°11'0 0.0
2018-Sep-20 13:00N 33°45' W 118°11'0 0.8
2018-Sep-20 12:30N 33°45' W 118°11'2 4.0
2018-Sep-20 12:03N 33°43' W 118°11'111.0
2018-Sep-20 12:00N 33°42' W 118°11'5 9.2
2018-Sep-20 11:30N 33°38' W 118°10'3 7.0
2018-Sep-20 11:03N 33°35' W 118°09'0 6.9
2018-Sep-20 11:00N 33°34' W 118°09'4 7.1
2018-Sep-20 10:30N 33°31' W 118°08'3 7.0
2018-Sep-20 10:03N 33°28' W 118°07'0 7.5
2018-Sep-20 10:00N 33°28' W 118°06'4 7.9
2018-Sep-20 09:30N 33°24' W 118°05'4 7.7
2018-Sep-20 09:03N 33°21' W 118°03'0 7.5
2018-Sep-20 09:00N 33°20' W 118°03'4 7.3
2018-Sep-20 08:30N 33°17' W 118°02'3 7.1
2018-Sep-20 08:03N 33°14' W 118°00'0 6.9
2018-Sep-20 08:00N 33°14' W 118°00'4 7.0
2018-Sep-20 07:30N 33°10' W 117°58'3 7.0
2018-Sep-20 07:03N 33°08' W 117°57'0 7.0
2018-Sep-20 07:00N 33°07' W 117°57'4 7.1
2018-Sep-20 06:30N 33°04' W 117°55'3 7.6
2018-Sep-20 06:03N 33°01' W 117°52'0 7.8
2018-Sep-20 06:00N 33°01' W 117°52'4 8.1
2018-Sep-20 05:30N 32°58' W 117°49'4 8.6
2018-Sep-20 05:03N 32°54' W 117°48'0 8.7
2018-Sep-20 05:00N 32°54' W 117°48'025.8
2018-Sep-20 05:00N 32°54' W 117°48'510.0 310 / 71008.010.8 19.015.922.0
2018-Sep-20 04:30N 32°49' W 117°48'510.7
2018-Sep-20 04:03N 32°44' W 117°48'110.9
2018-Sep-20 04:00N 32°44' W 117°48'510.7
2018-Sep-20 03:30N 32°38' W 117°47'510.3
2018-Sep-20 03:03N 32°34' W 117°46'110.2
2018-Sep-20 03:00N 32°33' W 117°46'5 9.8
2018-Sep-20 02:30N 32°29' W 117°45'4 9.4
2018-Sep-20 02:03N 32°24' W 117°44'0 7.4
2018-Sep-20 02:00N 32°24' W 117°44'4 8.6
2018-Sep-20 01:30N 32°20' W 117°44'4 9.6
2018-Sep-20 01:03N 32°15' W 117°43'1 9.7
2018-Sep-20 01:00N 32°15' W 117°43'5 9.7
2018-Sep-20 00:30N 32°10' W 117°42'4 9.6
2018-Sep-20 00:03N 32°06' W 117°41'0 9.4
2018-Sep-20 00:00N 32°05' W 117°41'5 9.4
2018-Sep-19 23:30N 32°01' W 117°40'4 9.5
2018-Sep-19 23:03N 31°57' W 117°39'0 9.2
2018-Sep-19 23:00N 31°56' W 117°39'5 9.2
2018-Sep-19 22:30N 31°52' W 117°37'510.6
2018-Sep-19 22:03N 31°48' W 117°35'111.2
2018-Sep-19 22:00N 31°47' W 117°34'610.2
2018-Sep-19 21:26N 31°42' W 117°30'3 9.0
2018-Sep-19 21:03N 31°39' W 117°29'0 8.0
2018-Sep-19 21:00N 31°39' W 117°29'4 7.3
2018-Sep-19 20:30N 31°35' W 117°30'3 7.4
2018-Sep-19 20:03N 31°33' W 117°33'0 7.3
2018-Sep-19 20:00N 31°33' W 117°33'4263.4
2018-Sep-19 20:00N 31°30' W 117°36'4 7.4 320 / 121010.010.8 20.013.522.0
2018-Sep-19 19:30N 31°33' W 117°38'3 7.2
2018-Sep-19 19:03N 31°34' W 117°41'0 7.6
2018-Sep-19 19:00N 31°34' W 117°42'4 7.6
2018-Sep-19 18:30N 31°35' W 117°46'3 7.5
2018-Sep-19 18:03N 31°36' W 117°50'0 7.6
2018-Sep-19 18:00N 31°36' W 117°50'4 7.3
2018-Sep-19 17:30N 31°37' W 117°54'3 6.6
2018-Sep-19 17:03N 31°39' W 117°57'0 7.3
2018-Sep-19 17:00N 31°39' W 117°58'4 7.3
2018-Sep-19 16:30N 31°42' W 117°60'3 7.1
2018-Sep-19 16:03N 31°45' W 118°02'0 7.3
2018-Sep-19 16:00N 31°45' W 118°02'4234.8
2018-Sep-19 16:00N 31°42' W 118°00'714.6 320 / 151010.010.8 17.013.722.0
2018-Sep-19 15:30N 31°48' W 118°05'3 7.2
2018-Sep-19 15:03N 31°50' W 118°07'0 7.1
2018-Sep-19 15:00N 31°51' W 118°07'5 5.5
2018-Sep-19 14:03N 31°48' W 118°13'4 7.5
2018-Sep-19 13:30N 31°44' W 118°13'3 7.4
2018-Sep-19 13:03N 31°41' W 118°13'0 7.4
2018-Sep-19 13:00N 31°40' W 118°12'2191.2
2018-Sep-19 13:00N 31°42' W 118°12'510.9 310 / 181010.0 5.4 17.012.022.0
2018-Sep-19 12:30N 31°37' W 118°11'3 7.2
2018-Sep-19 12:03N 31°34' W 118°10'0 7.2
2018-Sep-19 12:00N 31°34' W 118°09'4 7.5
2018-Sep-19 11:30N 31°33' W 118°05'3 7.5
2018-Sep-19 11:03N 31°33' W 118°01'0 8.1
2018-Sep-19 11:00N 31°33' W 118°01'4 7.6
2018-Sep-19 10:30N 31°33' W 117°56'3 7.5
2018-Sep-19 10:03N 31°35' W 117°53'0 7.8
2018-Sep-19 10:00N 31°35' W 117°53'4 7.6
2018-Sep-19 09:30N 31°38' W 117°49'3 7.4
2018-Sep-19 09:03N 31°40' W 117°46'0 7.5
2018-Sep-19 09:00N 31°40' W 117°46'4 7.8
2018-Sep-19 08:30N 31°41' W 117°41'4 8.1
2018-Sep-19 08:03N 31°42' W 117°37'0 7.4
2018-Sep-19 08:00N 31°42' W 117°37'4 7.9
2018-Sep-19 07:30N 31°43' W 117°32'3 7.4
2018-Sep-19 07:03N 31°44' W 117°28'1 7.6
2018-Sep-19 06:59N 31°44' W 117°28'4 7.7
2018-Sep-19 06:30N 31°45' W 117°24'4 7.8
2018-Sep-19 06:02N 31°46' W 117°19'0 7.0
2018-Sep-19 06:00N 31°46' W 117°19'4 7.6
2018-Sep-19 05:30N 31°47' W 117°15'3 7.6
2018-Sep-19 05:03N 31°48' W 117°11'2 7.4
2018-Sep-19 04:51N 31°48' W 117°09'3 7.3
2018-Sep-19 04:30N 31°49' W 117°06'510.7
2018-Sep-19 04:00N 31°48' W 117°00'9 8.7 320 / 181010.010.8 19.017.522.0
2018-Sep-19 02:59N 31°52' W 116°51'4 8.3
2018-Sep-19 02:27N 31°52' W 116°46'3 8.4
2018-Sep-19 02:03N 31°50' W 116°43'2 8.3
2018-Sep-19 01:46N 31°50' W 116°40'1 0.1
2018-Sep-18 13:58N 31°50' W 116°39'6 7.8
2018-Sep-18 13:13N 31°51' W 116°45'2 8.4
2018-Sep-18 13:02N 31°52' W 116°47'1 8.1
2018-Sep-18 12:56N 31°53' W 116°48'3 7.8
2018-Sep-18 12:30N 31°54' W 116°51'4 9.3
2018-Sep-18 12:03N 31°55' W 116°56'0 8.8
2018-Sep-18 12:00N 31°55' W 116°57'5 9.3
2018-Sep-18 11:30N 31°57' W 117°02'4 9.2
2018-Sep-18 11:04N 31°58' W 117°06'0 9.6
2018-Sep-18 11:01N 31°58' W 117°07'5 9.3
2018-Sep-18 10:31N 31°59' W 117°12'4 9.7
2018-Sep-18 10:04N 32°01' W 117°17'110.5
2018-Sep-18 10:01N 32°01' W 117°18'5 9.5
2018-Sep-18 09:30N 32°02' W 117°23'4 8.9
2018-Sep-18 09:04N 32°04' W 117°27'0 8.7
2018-Sep-18 09:01N 32°04' W 117°28'4 8.9
2018-Sep-18 08:31N 32°08' W 117°30'4 9.1
2018-Sep-18 08:03N 32°12' W 117°33'0 9.3
2018-Sep-18 08:01N 32°12' W 117°33'5 9.2
2018-Sep-18 07:31N 32°16' W 117°36'4 9.0
2018-Sep-18 07:04N 32°19' W 117°39'0 9.3
2018-Sep-18 07:01N 32°19' W 117°39'5 9.1
2018-Sep-18 06:31N 32°23' W 117°42'612.6
2018-Sep-18 06:03N 32°29' W 117°44'112.7
2018-Sep-18 06:01N 32°29' W 117°45'612.8
2018-Sep-18 05:30N 32°35' W 117°47'4 9.9
2018-Sep-18 05:04N 32°40' W 117°48'0 9.3
2018-Sep-18 05:00N 32°40' W 117°48'5 9.6
2018-Sep-18 04:30N 32°45' W 117°49'4 9.5
2018-Sep-18 04:04N 32°49' W 117°50'0 9.5
2018-Sep-18 04:01N 32°49' W 117°50'5 9.2
2018-Sep-18 03:30N 32°54' W 117°51'4 8.9
2018-Sep-18 03:03N 32°57' W 117°54'1 9.3
2018-Sep-18 03:00N 32°58' W 117°54'5 9.1
2018-Sep-18 02:30N 33°01' W 117°57'4 9.5
2018-Sep-18 02:03N 33°04' W 118°01'0 9.6
2018-Sep-18 02:00N 33°05' W 118°01'5 9.7
2018-Sep-18 01:31N 33°08' W 118°05'4 9.5
2018-Sep-18 01:04N 33°12' W 118°08'0 9.2
2018-Sep-18 01:01N 33°12' W 118°08'5 9.1
2018-Sep-18 00:30N 33°14' W 118°13'4 8.8
2018-Sep-18 00:03N 33°17' W 118°16'0 8.7
2018-Sep-18 00:00N 33°18' W 118°16'4 7.6
2018-Sep-17 23:30N 33°21' W 118°19'0 0.4
2018-Sep-17 22:58N 33°21' W 118°19'0 0.0
2018-Sep-17 22:28N 33°21' W 118°19'0 0.1
2018-Sep-17 22:01N 33°21' W 118°19'0 0.0
2018-Sep-17 21:58N 33°21' W 118°19'0 0.1
2018-Sep-17 21:28N 33°21' W 118°19'0 0.0
2018-Sep-17 21:03N 33°21' W 118°19'0 0.1
2018-Sep-17 21:00N 33°21' W 118°19'0 0.0
2018-Sep-17 20:30N 33°21' W 118°19'0 0.0
2018-Sep-17 20:03N 33°21' W 118°19'0 0.0
2018-Sep-17 19:45N 33°21' W 118°19'0 0.0
2018-Sep-17 19:27N 33°21' W 118°19'0 0.0
2018-Sep-17 19:03N 33°21' W 118°19'0 0.0
2018-Sep-17 18:59N 33°21' W 118°19'0 0.0
2018-Sep-17 18:29N 33°21' W 118°19'0 0.0
2018-Sep-17 18:02N 33°21' W 118°19'0 0.1
2018-Sep-17 17:59N 33°21' W 118°19'0 0.1
2018-Sep-17 17:26N 33°21' W 118°19'0 0.1
2018-Sep-17 17:03N 33°21' W 118°19'0 0.0
2018-Sep-17 16:56N 33°21' W 118°19'0 0.0
2018-Sep-17 16:28N 33°21' W 118°19'0 0.0
2018-Sep-17 15:58N 33°21' W 118°19'0 0.0
2018-Sep-17 15:28N 33°21' W 118°19'0 0.0
2018-Sep-17 15:01N 33°21' W 118°19'0 0.1
2018-Sep-17 14:58N 33°21' W 118°19'0 0.0
2018-Sep-17 14:31N 33°21' W 118°19'0 0.2
2018-Sep-17 14:00N 33°21' W 118°19'3 5.3
2018-Sep-17 13:30N 33°19' W 118°17'3 7.2
2018-Sep-17 13:03N 33°16' W 118°17'0 5.7
2018-Sep-17 13:00N 33°15' W 118°17'3 7.0
2018-Sep-17 12:30N 33°12' W 118°16'3 7.0
2018-Sep-17 12:03N 33°09' W 118°16'0 7.1
2018-Sep-17 12:00N 33°08' W 118°16'3 6.9
2018-Sep-17 11:30N 33°05' W 118°16'3 7.2
2018-Sep-17 11:03N 33°03' W 118°13'0 7.0
2018-Sep-17 11:00N 33°02' W 118°13'3 7.0
2018-Sep-17 10:30N 33°00' W 118°10'3 7.0
2018-Sep-17 10:03N 32°58' W 118°07'0 7.1
2018-Sep-17 10:00N 32°58' W 118°07'4 7.1
2018-Sep-17 09:30N 32°55' W 118°04'3 7.2
2018-Sep-17 09:03N 32°53' W 118°01'0 8.0
2018-Sep-17 09:00N 32°53' W 118°00'4 7.0
2018-Sep-17 08:30N 32°53' W 117°56'3 6.2
2018-Sep-17 08:03N 32°55' W 117°55'0 7.2
2018-Sep-17 08:00N 32°56' W 117°55'3 6.9
2018-Sep-17 07:30N 32°59' W 117°57'3 7.2
2018-Sep-17 07:03N 33°02' W 117°58'0 7.3
2018-Sep-17 07:00N 33°02' W 117°58'4 7.1
2018-Sep-17 06:30N 33°06' W 117°60'3 7.0
2018-Sep-17 06:03N 33°08' W 118°01'0 6.7
2018-Sep-17 06:00N 33°09' W 118°01'4 7.3
2018-Sep-17 05:30N 33°12' W 118°03'4 8.2
2018-Sep-17 05:03N 33°16' W 118°05'0 9.3
2018-Sep-17 05:00N 33°16' W 118°05'5 9.6
2018-Sep-17 04:30N 33°21' W 118°07'4 9.4
2018-Sep-17 04:03N 33°25' W 118°09'0 9.6
2018-Sep-17 04:00N 33°25' W 118°09'5 9.5
2018-Sep-17 03:30N 33°29' W 118°11'4 9.1
2018-Sep-17 03:03N 33°33' W 118°12'0 9.3
2018-Sep-17 03:00N 33°34' W 118°13'11743.0
2018-Sep-17 03:00N 33°24' W 118°06'1530.7 300 / 131012.010.8 21.016.422.0
2018-Sep-17 02:30N 33°38' W 118°13'4 8.1
2018-Sep-17 02:03N 33°41' W 118°11'0 7.5
2018-Sep-17 02:00N 33°42' W 118°11'3 6.6
2018-Sep-17 01:30N 33°45' W 118°11'0 0.1
2018-Sep-17 01:01N 33°45' W 118°11'0 0.0
2018-Sep-17 00:58N 33°45' W 118°11'0 0.0
2018-Sep-17 00:28N 33°45' W 118°11'0 0.0
2018-Sep-17 00:01N 33°45' W 118°11'0 0.0
2018-Sep-16 23:58N 33°45' W 118°11'0 0.0
2018-Sep-16 23:28N 33°45' W 118°11'0 0.0
2018-Sep-16 23:04N 33°45' W 118°11'0 0.0
2018-Sep-16 23:00N 33°45' W 118°11'0 0.0
2018-Sep-16 22:30N 33°45' W 118°11'0 0.0
2018-Sep-16 22:03N 33°45' W 118°11'0 0.0
2018-Sep-16 22:00N 33°45' W 118°11'0 0.0
2018-Sep-16 21:30N 33°45' W 118°11'0 0.0
2018-Sep-16 21:03N 33°45' W 118°11'0 0.0
2018-Sep-16 21:00N 33°45' W 118°11'0 0.0
2018-Sep-16 20:29N 33°45' W 118°11'0 0.0
2018-Sep-16 20:02N 33°45' W 118°11'0 0.0
2018-Sep-16 19:59N 33°45' W 118°11'0 0.0
2018-Sep-16 19:29N 33°45' W 118°11'0 0.0
2018-Sep-16 19:02N 33°45' W 118°11'0 0.0
2018-Sep-16 18:59N 33°45' W 118°11'0 0.0
2018-Sep-16 18:28N 33°45' W 118°11'0 0.0
2018-Sep-16 18:01N 33°45' W 118°11'0 0.0
2018-Sep-16 17:58N 33°45' W 118°11'0 0.0
2018-Sep-16 17:28N 33°45' W 118°11'0 0.0
2018-Sep-16 17:01N 33°45' W 118°11'0 0.0
2018-Sep-16 16:58N 33°45' W 118°11'0 0.0
2018-Sep-16 16:28N 33°45' W 118°11'0 0.0
2018-Sep-16 16:03N 33°45' W 118°11'0 0.0
2018-Sep-16 16:00N 33°45' W 118°11'0 0.0
2018-Sep-16 15:30N 33°45' W 118°11'0 0.0
2018-Sep-16 15:03N 33°45' W 118°11'0 0.0
2018-Sep-16 15:00N 33°45' W 118°11'0 0.0
2018-Sep-16 14:30N 33°45' W 118°11'0 0.0
2018-Sep-16 13:29N 33°45' W 118°11'0 0.0
2018-Sep-16 13:03N 33°45' W 118°11'0 0.0
2018-Sep-16 13:00N 33°45' W 118°11'0 0.7
2018-Sep-16 12:31N 33°45' W 118°11'3 6.3
2018-Sep-16 12:03N 33°42' W 118°11'0 9.9
2018-Sep-16 12:01N 33°42' W 118°11'4 8.2
2018-Sep-16 11:30N 33°37' W 118°10'510.6
2018-Sep-16 11:04N 33°33' W 118°08'112.3
2018-Sep-16 11:01N 33°32' W 118°08'611.3
2018-Sep-16 10:30N 33°27' W 118°06'511.8
2018-Sep-16 10:04N 33°22' W 118°04'112.2
2018-Sep-16 10:00N 33°21' W 118°03'611.7
2018-Sep-16 09:31N 33°16' W 117°60'511.5
2018-Sep-16 09:03N 33°11' W 117°58'111.3
2018-Sep-16 09:01N 33°11' W 117°57'611.1
2018-Sep-16 08:31N 33°06' W 117°55'613.6
2018-Sep-16 08:03N 32°60' W 117°53'116.9
2018-Sep-16 08:00N 32°59' W 117°52'817.0
2018-Sep-16 07:30N 32°51' W 117°49'817.1
2018-Sep-16 07:03N 32°44' W 117°47'116.3
2018-Sep-16 07:00N 32°43' W 117°47'816.2
2018-Sep-16 06:30N 32°35' W 117°45'716.0
2018-Sep-16 06:03N 32°28' W 117°42'115.7
2018-Sep-16 06:01N 32°27' W 117°42'815.9
2018-Sep-16 05:30N 32°21' W 117°36'715.8
2018-Sep-16 05:03N 32°15' W 117°31'115.8
2018-Sep-16 05:00N 32°15' W 117°30'816.0
2018-Sep-16 04:30N 32°10' W 117°23'716.0
2018-Sep-16 04:03N 32°05' W 117°16'115.8
2018-Sep-16 04:00N 32°05' W 117°16'815.8
2018-Sep-16 03:30N 32°01' W 117°08'716.1
2018-Sep-16 03:03N 31°57' W 117°00'116.6
2018-Sep-16 03:00N 31°57' W 116°59'816.3
2018-Sep-16 02:30N 31°53' W 116°50'715.7
2018-Sep-16 02:03N 31°50' W 116°43'114.6
2018-Sep-16 02:00N 31°50' W 116°42'4 0.3
2018-Sep-15 14:05N 31°50' W 116°38'1 9.2
2018-Sep-15 14:00N 31°50' W 116°39'3 6.6
2018-Sep-15 13:30N 31°50' W 116°43'5 6.6
2018-Sep-15 12:43N 31°53' W 116°48'1 6.2
2018-Sep-15 12:30N 31°53' W 116°50'3 6.7
2018-Sep-15 12:03N 31°52' W 116°53'0 7.4
2018-Sep-15 12:00N 31°52' W 116°53'3 7.0
2018-Sep-15 11:30N 31°51' W 116°57'3 7.0
2018-Sep-15 11:03N 31°50' W 117°01'0 7.5
2018-Sep-15 11:00N 31°49' W 117°01'4 7.4
2018-Sep-15 10:30N 31°49' W 117°05'3 7.2
2018-Sep-15 10:03N 31°51' W 117°08'0 6.7
2018-Sep-15 10:00N 31°51' W 117°09'3 6.8
2018-Sep-15 09:30N 31°53' W 117°12'3 7.0
2018-Sep-15 09:03N 31°55' W 117°15'0 6.9
2018-Sep-15 09:00N 31°55' W 117°15'3242.1
2018-Sep-15 09:00N 31°54' W 117°12'613.4 310 / 141010.0 20.015.322.0
2018-Sep-15 08:30N 31°56' W 117°19'3 6.3
2018-Sep-15 08:03N 31°53' W 117°20'0 7.3
2018-Sep-15 08:00N 31°53' W 117°20'4 7.6
2018-Sep-15 07:30N 31°49' W 117°19'4 7.9
2018-Sep-15 07:03N 31°46' W 117°17'0 8.4
2018-Sep-15 07:00N 31°45' W 117°17'4 8.3
2018-Sep-15 06:30N 31°41' W 117°16'3 7.2
2018-Sep-15 06:03N 31°39' W 117°17'0 8.2
2018-Sep-15 06:00N 31°39' W 117°18'4 7.6
2018-Sep-15 05:30N 31°40' W 117°22'3 7.5
2018-Sep-15 05:03N 31°42' W 117°25'0 6.1
2018-Sep-15 05:00N 31°42' W 117°26'3 6.7
2018-Sep-15 04:30N 31°41' W 117°30'3 6.9
2018-Sep-15 04:03N 31°40' W 117°33'0 6.4
2018-Sep-15 04:00N 31°40' W 117°33'3 6.8
2018-Sep-15 03:30N 31°39' W 117°37'3 6.7
2018-Sep-15 03:03N 31°39' W 117°41'0 5.5
2018-Sep-15 03:01N 31°38' W 117°41'5282.3
2018-Sep-15 03:00N 31°36' W 117°36'815.7 310 / 151009.010.8 19.017.522.0
2018-Sep-15 02:30N 31°38' W 117°45'3 7.0
2018-Sep-15 02:02N 31°37' W 117°49'0 6.9
2018-Sep-15 02:00N 31°37' W 117°49'3 6.9
2018-Sep-15 01:30N 31°36' W 117°53'3 6.9
2018-Sep-15 01:03N 31°36' W 117°56'0 7.4
2018-Sep-15 01:00N 31°36' W 117°57'3 6.7
2018-Sep-15 00:31N 31°35' W 118°00'3 6.8
2018-Sep-15 00:03N 31°34' W 118°04'0 6.4
2018-Sep-15 00:00N 31°34' W 118°04'4 7.2
2018-Sep-14 23:31N 31°33' W 118°08'3 7.5
2018-Sep-14 23:03N 31°33' W 118°12'0 8.8
2018-Sep-14 23:00N 31°33' W 118°13'4 8.0
2018-Sep-14 22:29N 31°38' W 118°13'3 8.0
2018-Sep-14 22:03N 31°41' W 118°13'0 8.0
2018-Sep-14 22:00N 31°41' W 118°13'  

Dump ship's entire track history